createdAt,value
2019-02-22T00:01:59.409Z,101985.08
2019-02-22T00:04:26.565Z,101993.45
2019-02-22T00:06:53.740Z,102001.90
2019-02-22T00:09:21.161Z,102002.34
2019-02-22T00:11:48.362Z,101995.77
2019-02-22T00:14:15.571Z,101997.56
2019-02-22T00:16:42.775Z,102002.28
2019-02-22T00:19:10.045Z,102003.04
2019-02-22T00:21:37.229Z,101999.89
2019-02-22T00:24:04.471Z,102004.00
2019-02-22T00:26:31.691Z,101999.11
2019-02-22T00:28:58.988Z,101988.70
2019-02-22T00:31:26.208Z,101996.73
2019-02-22T00:33:54.387Z,102007.02
2019-02-22T00:36:21.636Z,102015.36
2019-02-22T00:38:48.706Z,102015.83
2019-02-22T00:41:15.887Z,102010.45
2019-02-22T00:43:44.080Z,102008.50
2019-02-22T00:46:11.267Z,101997.81
2019-02-22T00:48:38.740Z,102000.27
2019-02-22T00:51:05.919Z,102001.44
2019-02-22T00:53:33.259Z,102006.70
2019-02-22T00:56:00.409Z,102010.09
2019-02-22T00:58:27.620Z,102010.93
2019-02-22T01:00:54.832Z,102017.52
2019-02-22T01:03:22.441Z,102020.99
2019-02-22T01:05:49.546Z,102015.54
2019-02-22T01:08:16.736Z,102017.72
2019-02-22T01:10:44.601Z,102017.16
2019-02-22T01:13:11.763Z,102027.45
2019-02-22T01:15:39.196Z,102023.30
2019-02-22T01:18:06.261Z,102027.07
2019-02-22T01:20:33.739Z,102029.00
2019-02-22T01:23:00.918Z,102028.89
2019-02-22T01:25:28.196Z,102029.45
2019-02-22T01:27:55.483Z,102032.34
2019-02-22T01:30:22.734Z,102034.61
2019-02-22T01:32:49.784Z,102033.44
2019-02-22T01:35:16.978Z,102035.05
2019-02-22T01:37:44.100Z,102035.97
2019-02-22T01:40:11.300Z,102034.34
2019-02-22T01:42:38.574Z,102038.86
2019-02-22T01:45:06.264Z,102029.52
2019-02-22T01:47:33.439Z,102031.52
2019-02-22T01:50:00.609Z,102031.52
2019-02-22T01:52:27.919Z,102034.16
2019-02-22T01:54:55.008Z,102041.55
2019-02-22T01:57:22.196Z,102048.03
2019-02-22T01:59:49.588Z,102052.14
2019-02-22T02:02:16.797Z,102054.17
2019-02-22T02:04:44.006Z,102059.91
2019-02-22T02:07:11.374Z,102069.32
2019-02-22T02:09:38.914Z,102056.14
2019-02-22T02:12:06.111Z,102058.09
2019-02-22T02:14:33.328Z,102056.70
2019-02-22T02:17:00.536Z,102052.38
2019-02-22T02:19:27.718Z,102053.83
2019-02-22T02:21:54.951Z,102059.40
2019-02-22T02:24:22.124Z,102059.38
2019-02-22T02:26:49.345Z,102068.66
2019-02-22T02:29:16.537Z,102073.81
2019-02-22T02:31:44.135Z,102070.42
2019-02-22T02:34:11.309Z,102070.13
2019-02-22T02:36:38.532Z,102067.34
2019-02-22T02:39:06.217Z,102073.38
2019-02-22T02:41:33.494Z,102071.86
2019-02-22T02:44:00.914Z,102068.36
2019-02-22T02:46:28.180Z,102074.11
2019-02-22T02:48:55.719Z,102069.50
2019-02-22T02:51:22.996Z,102073.76
2019-02-22T02:53:50.316Z,102078.40
2019-02-22T02:56:17.493Z,102072.75
2019-02-22T02:58:44.735Z,102079.09
2019-02-22T03:01:11.969Z,102082.14
2019-02-22T03:03:39.645Z,102082.53
2019-02-22T03:06:29.902Z,102078.20
2019-02-22T03:08:57.465Z,102082.11
2019-02-22T03:11:24.690Z,102084.42
2019-02-22T03:13:52.373Z,102092.47
2019-02-22T03:16:20.078Z,102093.02
2019-02-22T03:18:47.278Z,102098.04
2019-02-22T03:21:14.488Z,102101.11
2019-02-22T03:23:42.133Z,102105.69
2019-02-22T03:26:09.514Z,102104.37
2019-02-22T03:28:36.830Z,102104.80
2019-02-22T03:31:04.005Z,102108.76
2019-02-22T03:33:31.189Z,102109.52
2019-02-22T03:35:58.387Z,102100.30
2019-02-22T03:38:25.663Z,102106.88
2019-02-22T03:40:52.861Z,102110.94
2019-02-22T03:43:20.085Z,102109.83
2019-02-22T03:46:28.072Z,102119.69
2019-02-22T03:49:27.195Z,102118.37
2019-02-22T03:55:27.885Z,102120.38
2019-02-22T04:00:56.741Z,102125.27
2019-02-22T04:03:35.567Z,102133.00
2019-02-22T04:06:02.816Z,102134.49
2019-02-22T04:11:31.423Z,102135.45
2019-02-22T04:13:58.647Z,102133.67
2019-02-22T04:16:45.333Z,102132.56
2019-02-22T04:19:32.003Z,102129.67
2019-02-22T04:25:45.206Z,102141.66
2019-02-22T04:28:12.401Z,102138.58
2019-02-22T04:30:39.478Z,102140.14
2019-02-22T04:35:47.157Z,102141.91
2019-02-22T04:38:14.385Z,102134.94
2019-02-22T04:46:02.491Z,102130.36
2019-02-22T04:49:10.492Z,102131.30
2019-02-22T04:51:58.994Z,102126.66
2019-02-22T04:54:26.404Z,102137.83
2019-02-22T04:57:05.923Z,102136.50
2019-02-22T05:03:26.499Z,102131.79
2019-02-22T05:05:53.589Z,102144.48
2019-02-22T05:08:40.249Z,102145.73
2019-02-22T05:11:07.811Z,102147.59
2019-02-22T05:13:46.957Z,102155.19
2019-02-22T05:19:33.967Z,102161.61
2019-02-22T05:22:01.152Z,102169.30
2019-02-22T05:24:40.331Z,102174.96
2019-02-22T05:27:07.476Z,102170.91
2019-02-22T05:29:34.572Z,102173.16
2019-02-22T05:32:01.749Z,102187.20
2019-02-22T05:34:28.914Z,102189.97
2019-02-22T05:36:56.113Z,102196.98
2019-02-22T05:39:23.317Z,102199.89
2019-02-22T05:41:50.435Z,102204.27
2019-02-22T05:44:17.670Z,102215.02
2019-02-22T05:47:16.534Z,102217.41
2019-02-22T05:50:03.178Z,102215.47
2019-02-22T05:52:49.944Z,102209.68
2019-02-22T05:58:16.550Z,102223.94
2019-02-22T06:01:03.204Z,102227.72
2019-02-22T06:03:49.907Z,102229.28
2019-02-22T06:06:17.094Z,102233.55
2019-02-22T06:08:44.283Z,102228.97
2019-02-22T06:11:11.814Z,102227.02
2019-02-22T06:13:39.000Z,102221.82
2019-02-22T06:16:06.478Z,102220.95
2019-02-22T06:18:34.046Z,102231.36
2019-02-22T06:21:01.476Z,102239.72
2019-02-22T06:23:28.906Z,102246.31
2019-02-22T06:29:16.925Z,102259.36
2019-02-22T06:34:45.731Z,102268.00
2019-02-22T06:40:26.249Z,102264.30
2019-02-22T06:42:53.436Z,102259.88
2019-02-22T06:45:20.751Z,102265.44
2019-02-22T06:48:07.310Z,102270.64
2019-02-22T06:50:34.439Z,102268.70
2019-02-22T06:53:01.660Z,102271.39
2019-02-22T06:55:42.529Z,102277.11
2019-02-22T06:58:29.101Z,102277.28
2019-02-22T07:00:56.711Z,102277.66
2019-02-22T07:03:23.940Z,102276.72
2019-02-22T07:05:51.038Z,102272.20
2019-02-22T07:08:39.543Z,102274.39
2019-02-22T07:11:20.977Z,102281.30
2019-02-22T07:13:48.241Z,102285.39
2019-02-22T07:16:15.531Z,102292.30
2019-02-22T07:18:42.749Z,102298.79
2019-02-22T07:21:09.931Z,102305.93
2019-02-22T07:23:37.104Z,102300.80
2019-02-22T07:26:04.216Z,102311.98
2019-02-22T07:28:31.396Z,102324.22
2019-02-22T07:30:58.474Z,102334.38
2019-02-22T07:33:25.659Z,102341.11
2019-02-22T07:35:52.813Z,102336.36
2019-02-22T07:38:19.986Z,102333.27
2019-02-22T07:40:47.173Z,102324.73
2019-02-22T07:43:14.436Z,102335.16
2019-02-22T07:45:41.637Z,102333.72
2019-02-22T07:48:08.708Z,102333.94
2019-02-22T07:50:35.840Z,102340.58
2019-02-22T07:53:02.972Z,102348.16
2019-02-22T07:55:30.166Z,102349.63
2019-02-22T07:57:57.368Z,102359.73
2019-02-22T08:00:24.539Z,102355.20
2019-02-22T08:02:51.686Z,102362.03
2019-02-22T08:05:18.957Z,102366.86
2019-02-22T08:07:46.021Z,102368.09
2019-02-22T08:10:13.223Z,102368.18
2019-02-22T08:12:40.874Z,102358.46
2019-02-22T08:15:08.872Z,102361.91
2019-02-22T08:17:36.169Z,102368.39
2019-02-22T08:20:03.808Z,102378.48
2019-02-22T08:22:31.024Z,102381.80
2019-02-22T08:24:59.302Z,102387.89
2019-02-22T08:27:26.544Z,102391.59
2019-02-22T08:29:53.719Z,102390.37
2019-02-22T08:32:21.122Z,102402.09
2019-02-22T08:34:48.332Z,102408.44
2019-02-22T08:37:15.516Z,102407.78
2019-02-22T08:39:42.723Z,102406.20
2019-02-22T08:42:10.247Z,102415.64
2019-02-22T08:44:37.425Z,102418.59
2019-02-22T08:47:04.622Z,102416.69
2019-02-22T08:49:31.703Z,102424.05
2019-02-22T08:51:58.915Z,102426.48
2019-02-22T08:54:25.995Z,102421.73
2019-02-22T08:56:53.278Z,102419.48
2019-02-22T08:59:20.811Z,102422.13
2019-02-22T09:01:47.998Z,102433.95
2019-02-22T09:04:15.197Z,102426.97
2019-02-22T09:06:42.457Z,102422.20
2019-02-22T09:09:09.629Z,102431.55
2019-02-22T09:11:36.886Z,102435.20
2019-02-22T09:14:04.081Z,102434.91
2019-02-22T09:16:31.293Z,102434.70
2019-02-22T09:18:58.498Z,102441.22
2019-02-22T09:21:25.750Z,102445.79
2019-02-22T09:23:53.025Z,102449.77
2019-02-22T09:26:20.612Z,102448.35
2019-02-22T09:28:48.296Z,102454.30
2019-02-22T09:31:15.472Z,102456.49
2019-02-22T09:33:42.695Z,102446.87
2019-02-22T09:36:10.265Z,102456.97
2019-02-22T09:38:37.480Z,102459.52
2019-02-22T09:41:04.773Z,102461.94
2019-02-22T09:43:31.993Z,102461.84
2019-02-22T09:46:00.377Z,102471.05
2019-02-22T09:48:31.021Z,102467.98
2019-02-22T09:50:58.717Z,102457.73
2019-02-22T09:53:26.308Z,102456.92
2019-02-22T09:56:00.775Z,102467.81
2019-02-22T10:01:42.869Z,102479.80
2019-02-22T10:04:10.508Z,102472.78
2019-02-22T10:06:37.851Z,102474.01
2019-02-22T10:09:06.247Z,102465.24
2019-02-22T10:11:33.709Z,102466.63
2019-02-22T10:14:06.606Z,102465.13
2019-02-22T10:16:30.311Z,102470.64
2019-02-22T10:18:57.629Z,102472.65
2019-02-22T10:21:25.006Z,102474.52
2019-02-22T10:23:52.341Z,102483.13
2019-02-22T10:26:21.383Z,102476.21
2019-02-22T10:28:48.856Z,102482.90
2019-02-22T10:31:16.340Z,102480.59
2019-02-22T10:33:43.625Z,102472.96
2019-02-22T10:36:10.923Z,102483.34
2019-02-22T10:38:38.556Z,102479.23
2019-02-22T10:41:05.757Z,102486.00
2019-02-22T10:43:32.954Z,102484.83
2019-02-22T10:46:00.143Z,102494.02
2019-02-22T10:48:27.331Z,102505.50
2019-02-22T10:50:54.441Z,102501.36
2019-02-22T10:53:21.683Z,102510.80
2019-02-22T10:55:48.881Z,102512.83
2019-02-22T10:58:16.147Z,102512.77
2019-02-22T11:00:43.462Z,102530.58
2019-02-22T11:03:10.625Z,102521.63
2019-02-22T11:05:37.734Z,102526.11
2019-02-22T11:08:04.939Z,102526.08
2019-02-22T11:10:32.871Z,102521.92
2019-02-22T11:13:00.120Z,102525.45
2019-02-22T11:15:27.384Z,102528.56
2019-02-22T11:17:54.545Z,102529.56
2019-02-22T11:20:22.290Z,102521.53
2019-02-22T11:22:49.494Z,102526.55
2019-02-22T11:25:16.794Z,102538.48
2019-02-22T11:27:43.927Z,102535.86
2019-02-22T11:30:11.377Z,102542.05
2019-02-22T11:32:38.856Z,102543.57
2019-02-22T11:35:06.458Z,102543.20
2019-02-22T11:37:33.933Z,102539.38
2019-02-22T11:40:01.111Z,102539.28
2019-02-22T11:42:28.297Z,102541.25
2019-02-22T11:44:55.536Z,102540.95
2019-02-22T11:47:22.672Z,102551.45
2019-02-22T11:49:49.881Z,102553.59
2019-02-22T11:52:17.087Z,102546.62
2019-02-22T11:54:44.279Z,102548.30
2019-02-22T11:57:11.630Z,102551.72
2019-02-22T11:59:38.910Z,102556.94
2019-02-22T12:02:06.060Z,102560.75
2019-02-22T12:04:33.232Z,102557.83
2019-02-22T12:07:00.460Z,102561.81
2019-02-22T12:09:28.510Z,102557.08
2019-02-22T12:11:55.664Z,102563.50
2019-02-22T12:14:22.890Z,102565.28
2019-02-22T12:16:50.031Z,102568.10
2019-02-22T12:19:17.354Z,102565.91
2019-02-22T12:21:44.526Z,102574.20
2019-02-22T12:24:11.714Z,102574.39
2019-02-22T12:26:39.500Z,102585.50
2019-02-22T12:29:10.037Z,102574.55
2019-02-22T12:31:37.237Z,102580.92
2019-02-22T12:34:04.442Z,102584.30
2019-02-22T12:36:31.647Z,102580.52
2019-02-22T12:38:58.899Z,102582.41
2019-02-22T12:41:26.080Z,102587.62
2019-02-22T12:43:53.360Z,102592.38
2019-02-22T12:46:20.516Z,102598.59
2019-02-22T12:48:47.716Z,102598.59
2019-02-22T12:51:14.974Z,102598.89
2019-02-22T12:53:42.173Z,102600.41
2019-02-22T12:56:09.342Z,102600.24
2019-02-22T12:58:36.561Z,102595.47
2019-02-22T13:01:03.831Z,102594.45
2019-02-22T13:03:31.273Z,102606.14
2019-02-22T13:05:59.131Z,102603.20
2019-02-22T13:08:26.299Z,102599.87
2019-02-22T13:10:53.475Z,102606.92
2019-02-22T13:13:20.687Z,102605.10
2019-02-22T13:15:47.844Z,102603.30
2019-02-22T13:18:15.059Z,102610.77
2019-02-22T13:20:42.169Z,102612.97
2019-02-22T13:23:09.363Z,102624.06
2019-02-22T13:25:36.595Z,102618.75
2019-02-22T13:28:03.896Z,102621.48
2019-02-22T13:30:31.063Z,102627.06
2019-02-22T13:32:58.235Z,102621.19
2019-02-22T13:35:25.441Z,102622.98
2019-02-22T13:37:52.694Z,102624.73
2019-02-22T13:40:20.207Z,102619.23
2019-02-22T13:42:47.425Z,102628.43
2019-02-22T13:45:25.643Z,102625.28
2019-02-22T13:47:43.744Z,102624.91
2019-02-22T13:50:11.723Z,102623.30
2019-02-22T13:52:39.077Z,102622.34
2019-02-22T13:55:06.640Z,102614.94
2019-02-22T13:57:33.844Z,102614.28
2019-02-22T14:00:01.141Z,102619.01
2019-02-22T14:02:28.318Z,102622.63
2019-02-22T14:04:55.510Z,102621.67
2019-02-22T14:07:22.683Z,102621.12
2019-02-22T14:09:49.951Z,102623.28
2019-02-22T14:12:17.976Z,102628.50
2019-02-22T14:14:45.179Z,102627.77
2019-02-22T14:17:12.265Z,102629.55
2019-02-22T14:19:39.779Z,102637.88
2019-02-22T14:22:06.989Z,102636.16
2019-02-22T14:24:34.238Z,102640.80
2019-02-22T14:27:01.475Z,102639.98
2019-02-22T14:29:29.085Z,102647.16
2019-02-22T14:31:56.320Z,102647.34
2019-02-22T14:34:23.590Z,102650.59
2019-02-22T14:36:51.150Z,102650.08
2019-02-22T14:39:18.273Z,102650.96
2019-02-22T14:41:46.074Z,102651.72
2019-02-22T14:44:13.275Z,102646.50
2019-02-22T14:46:41.031Z,102651.34
2019-02-22T14:49:08.702Z,102652.75
2019-02-22T14:51:35.946Z,102654.06
2019-02-22T14:54:03.106Z,102655.95
2019-02-22T14:56:30.699Z,102657.19
2019-02-22T14:58:57.868Z,102651.69
2019-02-22T15:01:25.049Z,102649.12
2019-02-22T15:03:52.281Z,102651.02
2019-02-22T15:06:19.470Z,102649.91
2019-02-22T15:08:46.640Z,102653.91
2019-02-22T15:11:13.838Z,102662.18
2019-02-22T15:13:41.156Z,102658.94
2019-02-22T15:16:39.933Z,102662.85
2019-02-22T15:19:07.090Z,102666.91
2019-02-22T15:21:34.630Z,102665.45
2019-02-22T15:24:01.892Z,102670.42
2019-02-22T15:26:29.265Z,102677.84
2019-02-22T15:28:56.483Z,102678.31
2019-02-22T15:31:23.680Z,102681.94
2019-02-22T15:33:51.145Z,102686.05
2019-02-22T15:36:18.691Z,102686.17
2019-02-22T15:38:46.093Z,102684.09
2019-02-22T15:41:13.241Z,102687.09
2019-02-22T15:43:40.400Z,102686.17
2019-02-22T15:46:12.320Z,102689.23
2019-02-22T15:48:37.121Z,102687.78
2019-02-22T15:51:07.166Z,102685.56
2019-02-22T15:53:33.467Z,102677.81
2019-02-22T15:56:00.723Z,102678.53
2019-02-22T15:58:27.913Z,102677.42
2019-02-22T16:00:55.196Z,102678.93
2019-02-22T16:03:22.536Z,102672.89
2019-02-22T16:05:49.729Z,102669.55
2019-02-22T16:08:16.958Z,102663.11
2019-02-22T16:10:44.652Z,102658.41
2019-02-22T16:13:11.904Z,102660.74
2019-02-22T16:15:40.656Z,102657.91
2019-02-22T16:18:08.021Z,102661.59
2019-02-22T16:20:35.173Z,102664.12
2019-02-22T16:23:02.355Z,102669.30
2019-02-22T16:25:29.673Z,102662.27
2019-02-22T16:27:57.138Z,102661.88
2019-02-22T16:30:26.523Z,102659.04
2019-02-22T16:32:53.705Z,102658.67
2019-02-22T16:35:20.943Z,102663.49
2019-02-22T16:37:48.263Z,102652.06
2019-02-22T16:40:15.485Z,102652.75
2019-02-22T16:42:42.724Z,102662.45
2019-02-22T16:45:09.961Z,102656.73
2019-02-22T16:47:40.345Z,102658.52
2019-02-22T16:50:08.432Z,102658.92
2019-02-22T16:52:35.617Z,102666.22
2019-02-22T16:55:03.220Z,102665.62
2019-02-22T16:57:30.847Z,102669.44
2019-02-22T16:59:58.098Z,102671.31
2019-02-22T17:02:25.285Z,102669.31
2019-02-22T17:04:52.596Z,102671.77
2019-02-22T17:07:19.782Z,102670.25
2019-02-22T17:09:46.931Z,102672.86
2019-02-22T17:12:14.486Z,102677.77
2019-02-22T17:14:41.742Z,102676.28
2019-02-22T17:17:08.925Z,102678.09
2019-02-22T17:19:36.096Z,102680.96
2019-02-22T17:22:03.341Z,102680.63
2019-02-22T17:24:30.807Z,102684.70
2019-02-22T17:26:58.042Z,102679.22
2019-02-22T17:29:25.619Z,102686.02
2019-02-22T17:31:52.888Z,102683.84
2019-02-22T17:34:20.064Z,102684.80
2019-02-22T17:36:47.250Z,102692.99
2019-02-22T17:39:14.432Z,102689.23
2019-02-22T17:41:42.873Z,102686.03
2019-02-22T17:44:10.484Z,102683.18
2019-02-22T17:46:37.708Z,102692.38
2019-02-22T17:49:04.889Z,102694.27
2019-02-22T17:51:32.114Z,102699.00
2019-02-22T17:53:59.335Z,102699.52
2019-02-22T17:56:26.600Z,102692.03
2019-02-22T17:58:53.859Z,102695.05
2019-02-22T18:01:21.050Z,102689.77
2019-02-22T18:03:48.844Z,102691.97
2019-02-22T18:06:16.412Z,102690.41
2019-02-22T18:08:43.832Z,102688.53
2019-02-22T18:11:11.046Z,102692.20
2019-02-22T18:13:38.330Z,102693.39
2019-02-22T18:16:05.561Z,102707.51
2019-02-22T18:18:32.852Z,102704.59
2019-02-22T18:21:00.084Z,102705.41
2019-02-22T18:23:27.812Z,102714.47
2019-02-22T18:25:55.181Z,102723.20
2019-02-22T18:28:22.591Z,102730.41
2019-02-22T18:30:49.820Z,102725.70
2019-02-22T18:33:17.017Z,102733.04
2019-02-22T18:35:44.100Z,102737.89
2019-02-22T18:38:11.292Z,102738.65
2019-02-22T18:40:38.460Z,102744.22
2019-02-22T18:43:05.725Z,102740.31
2019-02-22T18:45:32.890Z,102731.23
2019-02-22T18:48:00.011Z,102736.94
2019-02-22T18:50:27.221Z,102732.80
2019-02-22T18:52:54.436Z,102730.90
2019-02-22T18:55:21.630Z,102742.55
2019-02-22T18:57:49.175Z,102745.86
2019-02-22T19:00:17.311Z,102746.97
2019-02-22T19:02:44.634Z,102748.03
2019-02-22T19:05:11.856Z,102752.33
2019-02-22T19:07:39.373Z,102754.23
2019-02-22T19:10:07.643Z,102750.48
2019-02-22T19:12:34.943Z,102755.13
2019-02-22T19:15:02.837Z,102763.41
2019-02-22T19:17:30.762Z,102765.81
2019-02-22T19:19:58.065Z,102760.25
2019-02-22T19:22:25.264Z,102759.95
2019-02-22T19:24:52.490Z,102767.09
2019-02-22T19:27:19.709Z,102771.28
2019-02-22T19:29:47.099Z,102773.14
2019-02-22T19:32:14.335Z,102785.35
2019-02-22T19:34:41.563Z,102782.58
2019-02-22T19:37:09.127Z,102784.27
2019-02-22T19:39:36.430Z,102787.47
2019-02-22T19:42:03.676Z,102786.70
2019-02-22T19:44:30.859Z,102800.67
2019-02-22T19:46:58.089Z,102798.91
2019-02-22T19:49:25.287Z,102803.41
2019-02-22T19:51:52.536Z,102809.19
2019-02-22T19:54:19.999Z,102809.28
2019-02-22T19:56:47.231Z,102814.97
2019-02-22T19:59:14.463Z,102817.49
2019-02-22T20:01:41.702Z,102822.09
2019-02-22T20:04:08.885Z,102813.73
2019-02-22T20:06:36.084Z,102812.95
2019-02-22T20:09:05.157Z,102817.77
2019-02-22T20:11:32.724Z,102815.55
2019-02-22T20:14:00.227Z,102816.52
2019-02-22T20:16:27.425Z,102818.36
2019-02-22T20:18:54.950Z,102824.69
2019-02-22T20:21:22.418Z,102823.81
2019-02-22T20:23:49.669Z,102824.28
2019-02-22T20:26:16.967Z,102820.81
2019-02-22T20:28:44.188Z,102825.53
2019-02-22T20:31:19.857Z,102827.13
2019-02-22T20:33:40.561Z,102824.36
2019-02-22T20:36:07.777Z,102826.29
2019-02-22T20:38:35.037Z,102838.36
2019-02-22T20:41:02.661Z,102838.10
2019-02-22T20:43:29.965Z,102840.66
2019-02-22T20:45:57.512Z,102838.80
2019-02-22T20:48:24.737Z,102844.20
2019-02-22T20:50:51.880Z,102843.13
2019-02-22T20:53:19.099Z,102843.83
2019-02-22T20:55:46.324Z,102845.79
2019-02-22T20:58:13.572Z,102848.81
2019-02-22T21:00:40.707Z,102861.14
2019-02-22T21:03:07.964Z,102855.99
2019-02-22T21:05:35.311Z,102858.67
2019-02-22T21:08:02.523Z,102862.29
2019-02-22T21:10:29.719Z,102865.81
2019-02-22T21:12:56.950Z,102869.12
2019-02-22T21:15:24.444Z,102872.53
2019-02-22T21:17:51.552Z,102871.38
2019-02-22T21:20:18.757Z,102875.68
2019-02-22T21:22:46.008Z,102879.64
2019-02-22T21:25:13.521Z,102887.50
2019-02-22T21:27:40.750Z,102876.09
2019-02-22T21:30:09.318Z,102883.98
2019-02-22T21:32:36.814Z,102883.39
2019-02-22T21:35:03.996Z,102881.11
2019-02-22T21:37:31.219Z,102870.91
2019-02-22T21:39:58.743Z,102873.53
2019-02-22T21:42:25.967Z,102869.50
2019-02-22T21:44:53.155Z,102856.39
2019-02-22T21:47:20.714Z,102861.23
2019-02-22T21:49:48.172Z,102867.91
2019-02-22T21:52:15.376Z,102860.55
2019-02-22T21:54:42.569Z,102864.09
2019-02-22T21:57:09.776Z,102865.00
2019-02-22T21:59:37.187Z,102859.48
2019-02-22T22:02:04.496Z,102865.81
2019-02-22T22:04:31.958Z,102866.97
2019-02-22T22:06:59.128Z,102867.63
2019-02-22T22:09:26.692Z,102869.34
2019-02-22T22:11:53.936Z,102869.34
2019-02-22T22:14:21.119Z,102865.58
2019-02-22T22:16:48.692Z,102862.83
2019-02-22T22:19:15.889Z,102859.36
2019-02-22T22:21:45.215Z,102862.78
2019-02-22T22:24:12.252Z,102864.19
2019-02-22T22:26:39.428Z,102871.55
2019-02-22T22:29:06.626Z,102866.97
2019-02-22T22:31:34.472Z,102874.34
2019-02-22T22:34:01.663Z,102870.13
2019-02-22T22:36:29.422Z,102870.87
2019-02-22T22:38:56.614Z,102873.03
2019-02-22T22:41:23.850Z,102879.58
2019-02-22T22:43:51.061Z,102884.45
2019-02-22T22:46:18.398Z,102892.69
2019-02-22T22:48:50.361Z,102892.93
2019-02-22T22:51:14.755Z,102896.73
2019-02-22T22:53:42.291Z,102888.53
2019-02-22T22:56:09.447Z,102893.24
2019-02-22T22:58:36.641Z,102899.15
2019-02-22T23:01:11.661Z,102903.30
2019-02-22T23:03:39.543Z,102906.47
2019-02-22T23:06:08.188Z,102900.26
2019-02-22T23:08:35.377Z,102907.31
2019-02-22T23:11:02.675Z,102909.70
2019-02-22T23:13:29.879Z,102910.30
2019-02-22T23:15:57.069Z,102908.60
2019-02-22T23:18:24.261Z,102917.19
2019-02-22T23:20:51.388Z,102919.59
2019-02-22T23:23:18.705Z,102925.23
2019-02-22T23:25:45.819Z,102925.16
2019-02-22T23:28:13.014Z,102930.85
2019-02-22T23:30:40.209Z,102939.31
2019-02-22T23:33:07.417Z,102951.55
2019-02-22T23:35:34.510Z,102952.86
2019-02-22T23:38:01.836Z,102958.16
2019-02-22T23:40:29.119Z,102961.88
2019-02-22T23:42:56.311Z,102961.48
2019-02-22T23:45:23.582Z,102952.17
2019-02-22T23:47:50.664Z,102964.75
2019-02-22T23:50:17.992Z,102962.80
2019-02-22T23:52:45.483Z,102974.66
2019-02-22T23:55:12.649Z,102970.19
2019-02-22T23:57:39.913Z,102969.33
